createdAt,value
2019-01-13T00:00:15.865Z,21.50
2019-01-13T00:01:16.061Z,23.70
2019-01-13T00:02:15.817Z,23.30
2019-01-13T00:03:15.736Z,22.90
2019-01-13T00:04:15.826Z,24.90
2019-01-13T00:05:15.737Z,24.60
2019-01-13T00:06:15.746Z,20.70
2019-01-13T00:07:15.753Z,25.20
2019-01-13T00:08:15.724Z,23.50
2019-01-13T00:09:15.756Z,22.00
2019-01-13T00:10:15.788Z,24.00
2019-01-13T00:11:15.656Z,27.90
2019-01-13T00:12:15.666Z,27.50
2019-01-13T00:13:15.668Z,23.50
2019-01-13T00:14:15.645Z,24.60
2019-01-13T00:15:15.674Z,22.50
2019-01-13T00:16:15.641Z,28.40
2019-01-13T00:17:18.522Z,30.00
2019-01-13T00:18:15.652Z,24.70
2019-01-13T00:19:15.623Z,26.30
2019-01-13T00:20:15.580Z,24.20
2019-01-13T00:21:15.546Z,29.30
2019-01-13T00:22:16.550Z,27.70
2019-01-13T00:24:47.187Z,21.30
2019-01-13T00:25:47.162Z,25.00
2019-01-13T00:26:47.144Z,23.60
2019-01-13T00:27:47.912Z,25.20
2019-01-13T00:28:46.912Z,21.40
2019-01-13T00:29:46.786Z,25.10
2019-01-13T00:30:46.830Z,21.40
2019-01-13T00:31:46.753Z,21.90
2019-01-13T00:32:46.951Z,24.60
2019-01-13T00:33:46.749Z,21.30
2019-01-13T00:34:46.734Z,25.00
2019-01-13T00:35:46.711Z,25.50
2019-01-13T00:36:48.808Z,21.40
2019-01-13T01:38:53.207Z,29.70
2019-01-13T01:42:18.632Z,41.00
2019-01-13T02:50:10.356Z,40.50
2019-01-13T02:51:10.688Z,44.70
2019-01-13T03:10:00.517Z,37.30
2019-01-13T03:11:02.627Z,46.60
2019-01-13T05:08:44.856Z,46.20
2019-01-13T05:09:44.839Z,48.40
2019-01-13T05:10:44.594Z,48.10
2019-01-13T05:11:44.975Z,47.70
2019-01-13T05:12:45.395Z,48.70
2019-01-13T05:15:03.854Z,46.30
2019-01-13T05:16:03.641Z,46.80
2019-01-13T05:17:03.404Z,47.50
2019-01-13T05:18:04.338Z,45.40
2019-01-13T05:19:03.234Z,44.70
2019-01-13T05:20:03.181Z,44.10
2019-01-13T05:21:03.259Z,44.90
2019-01-13T05:22:03.170Z,44.00
2019-01-13T05:23:03.192Z,43.80
2019-01-13T05:24:03.230Z,40.20
2019-01-13T05:25:03.101Z,41.00
2019-01-13T05:26:03.128Z,40.20
2019-01-13T05:27:03.078Z,39.00
2019-01-13T05:28:03.073Z,39.80
2019-01-13T05:29:03.091Z,42.20
2019-01-13T05:30:03.046Z,40.00
2019-01-13T05:31:03.025Z,37.00
2019-01-13T05:32:03.024Z,39.90
2019-01-13T05:33:03.045Z,40.00
2019-01-13T05:34:03.052Z,39.40
2019-01-13T05:35:03.101Z,37.90
2019-01-13T05:36:02.987Z,40.30
2019-01-13T05:37:02.973Z,37.80
2019-01-13T05:38:03.010Z,36.10
2019-01-13T05:39:02.981Z,36.50
2019-01-13T05:40:02.956Z,36.10
2019-01-13T05:41:02.986Z,35.10
2019-01-13T05:42:02.920Z,36.00
2019-01-13T05:43:02.907Z,37.50
2019-01-13T05:44:02.904Z,34.20
2019-01-13T05:45:02.943Z,33.80
2019-01-13T05:46:02.930Z,37.10
2019-01-13T05:47:02.935Z,36.40
2019-01-13T05:48:02.854Z,37.60
2019-01-13T05:49:02.827Z,37.00
2019-01-13T05:50:02.887Z,36.70
2019-01-13T05:51:02.919Z,36.20
2019-01-13T05:52:02.810Z,38.20
2019-01-13T05:53:02.916Z,36.80
2019-01-13T05:54:02.784Z,38.60
2019-01-13T05:55:02.804Z,39.20
2019-01-13T05:56:02.791Z,36.30
2019-01-13T05:57:02.922Z,38.60
2019-01-13T05:58:02.889Z,39.60
2019-01-13T05:59:02.775Z,39.80
2019-01-13T06:00:02.820Z,42.40
2019-01-13T06:01:02.742Z,40.80
2019-01-13T06:04:58.753Z,42.50
2019-01-13T06:05:46.574Z,41.90
2019-01-13T06:06:46.596Z,41.00
2019-01-13T06:07:46.907Z,43.90
2019-01-13T06:10:24.418Z,36.00
2019-01-13T06:11:24.113Z,41.60
2019-01-13T06:12:24.024Z,40.40
2019-01-13T06:19:17.249Z,33.10
2019-01-13T06:22:06.914Z,36.50
2019-01-13T06:23:06.135Z,43.30
2019-01-13T06:24:07.227Z,44.70
2019-01-13T06:34:48.010Z,37.70
2019-01-13T06:35:46.368Z,46.80
2019-01-13T06:57:26.305Z,45.20
2019-01-13T07:06:30.526Z,40.50
2019-01-13T07:08:53.380Z,37.40
2019-01-13T07:36:30.352Z,42.60
2019-01-13T07:37:27.453Z,41.90
2019-01-13T07:38:26.645Z,40.00
2019-01-13T07:39:26.844Z,39.70
2019-01-13T07:40:27.386Z,37.40
2019-01-13T08:00:38.770Z,28.20
2019-01-13T08:04:41.957Z,21.20
2019-01-13T08:05:46.650Z,25.00
2019-01-13T08:06:42.444Z,23.70
2019-01-13T08:07:41.685Z,23.00
2019-01-13T08:08:41.398Z,21.90
2019-01-13T08:20:56.600Z,19.10
2019-01-13T08:21:57.101Z,19.90
2019-01-13T08:22:56.071Z,21.80
2019-01-13T08:23:55.753Z,20.60
2019-01-13T08:24:55.686Z,23.10
2019-01-13T08:25:55.741Z,21.80
2019-01-13T08:26:55.967Z,21.40
2019-01-13T08:27:55.910Z,21.80
2019-01-13T08:28:55.622Z,23.90
2019-01-13T08:29:55.661Z,21.90
2019-01-13T08:30:55.609Z,20.20
2019-01-13T08:31:55.599Z,22.20
2019-01-13T08:32:55.623Z,20.80
2019-01-13T08:33:55.596Z,20.90
2019-01-13T08:34:55.643Z,20.90
2019-01-13T08:35:55.561Z,21.40
2019-01-13T08:36:55.565Z,22.10
2019-01-13T08:37:55.533Z,23.70
2019-01-13T08:38:55.537Z,24.10
2019-01-13T08:39:55.587Z,21.70
2019-01-13T08:40:55.500Z,23.20
2019-01-13T08:41:56.507Z,23.80
2019-01-13T08:42:55.692Z,26.50
2019-01-13T08:43:55.469Z,25.20
2019-01-13T08:44:55.510Z,27.20
2019-01-13T08:45:55.477Z,28.80
2019-01-13T08:46:55.526Z,27.80
2019-01-13T08:47:55.486Z,28.10
2019-01-13T08:48:55.534Z,29.50
2019-01-13T08:50:07.599Z,29.80
2019-01-13T08:50:55.703Z,30.90
2019-01-13T08:51:55.694Z,31.10
2019-01-13T08:52:55.496Z,32.40
2019-01-13T08:53:55.472Z,30.20
2019-01-13T08:56:09.602Z,25.60
2019-01-13T08:57:09.379Z,31.50
2019-01-13T08:58:09.163Z,32.30
2019-01-13T08:59:09.194Z,32.10
2019-01-13T09:00:10.899Z,34.10
2019-01-13T09:01:09.038Z,33.40
2019-01-13T09:02:08.948Z,34.20
2019-01-13T09:03:09.022Z,35.10
2019-01-13T09:04:09.012Z,32.70
2019-01-13T09:05:08.933Z,33.10
2019-01-13T09:06:09.106Z,35.80
2019-01-13T09:07:08.996Z,35.20
2019-01-13T09:08:08.990Z,35.00
2019-01-13T09:09:08.888Z,36.00
2019-01-13T09:10:08.859Z,35.10
2019-01-13T09:11:08.862Z,33.40
2019-01-13T09:12:08.881Z,35.30
2019-01-13T09:13:08.931Z,34.10
2019-01-13T09:14:08.822Z,33.90
2019-01-13T09:16:25.533Z,27.80
2019-01-13T09:17:25.124Z,32.30
2019-01-13T09:18:25.052Z,31.90
2019-01-13T09:19:25.412Z,30.10
2019-01-13T09:20:24.947Z,31.10
2019-01-13T09:21:24.924Z,29.70
2019-01-13T09:22:25.232Z,30.80
2019-01-13T09:23:25.709Z,28.90
2019-01-13T09:24:24.883Z,29.20
2019-01-13T09:25:24.941Z,30.60
2019-01-13T09:26:24.864Z,30.90
2019-01-13T09:27:24.857Z,29.10
2019-01-13T09:28:25.251Z,25.60
2019-01-13T09:29:24.861Z,26.90
2019-01-13T09:30:34.706Z,26.30
2019-01-13T09:31:25.222Z,25.70
2019-01-13T09:32:24.901Z,24.90
2019-01-13T09:33:25.030Z,24.50
2019-01-13T09:34:24.846Z,24.30
2019-01-13T09:35:24.824Z,24.00
2019-01-13T09:36:24.765Z,20.00
2019-01-13T09:41:18.522Z,15.80
2019-01-13T09:42:33.887Z,19.00
2019-01-13T09:43:18.414Z,19.90
2019-01-13T09:44:20.377Z,19.60
2019-01-13T09:50:55.038Z,15.10
2019-01-13T09:53:55.699Z,14.10
2019-01-13T09:57:42.144Z,13.90
2019-01-13T10:00:05.327Z,10.30
2019-01-13T10:01:04.927Z,12.30
2019-01-13T10:02:04.901Z,12.40
2019-01-13T10:03:04.928Z,12.10
2019-01-13T10:04:04.803Z,12.60
2019-01-13T10:05:04.775Z,11.00
2019-01-13T10:06:04.770Z,11.60
2019-01-13T10:07:04.807Z,11.30
2019-01-13T10:08:04.984Z,10.70
2019-01-13T10:09:04.705Z,11.70
2019-01-13T10:10:04.787Z,11.50
2019-01-13T10:11:04.695Z,12.30
2019-01-13T10:12:04.730Z,11.00
2019-01-13T10:13:04.701Z,11.90
2019-01-13T10:14:04.658Z,11.70
2019-01-13T10:15:04.644Z,11.30
2019-01-13T10:16:04.834Z,14.50
2019-01-13T10:17:04.613Z,13.30
2019-01-13T10:18:04.652Z,13.90
2019-01-13T10:19:04.639Z,12.40
2019-01-13T10:20:04.583Z,13.60
2019-01-13T10:21:04.570Z,12.10
2019-01-13T10:22:04.601Z,13.60
2019-01-13T10:23:04.610Z,13.40
2019-01-13T10:24:04.539Z,13.40
2019-01-13T10:25:04.533Z,12.00
2019-01-13T10:26:06.783Z,13.70
2019-01-13T10:28:41.495Z,10.20
2019-01-13T10:29:37.600Z,11.50
2019-01-13T10:30:37.847Z,11.90
2019-01-13T10:32:55.161Z,8.20
2019-01-13T10:33:53.793Z,12.00
2019-01-13T10:34:53.710Z,12.00
2019-01-13T10:35:54.330Z,11.10
2019-01-13T10:37:55.989Z,10.00
2019-01-13T10:38:55.930Z,9.90
2019-01-13T10:39:55.479Z,11.90
2019-01-13T10:40:57.139Z,10.30
2019-01-13T10:42:05.494Z,11.10
2019-01-13T10:42:57.050Z,10.80
2019-01-13T10:43:56.087Z,10.00
2019-01-13T10:44:55.414Z,11.00
2019-01-13T10:45:55.134Z,10.40
2019-01-13T10:46:55.275Z,9.30
2019-01-13T10:47:55.122Z,7.90
2019-01-13T10:48:56.999Z,8.40
2019-01-13T10:49:55.157Z,10.50
2019-01-13T10:50:56.005Z,10.30
2019-01-13T10:51:55.076Z,10.90
2019-01-13T10:52:55.117Z,9.10
2019-01-13T10:53:55.070Z,9.30
2019-01-13T10:54:55.279Z,9.60
2019-01-13T10:55:55.630Z,10.50
2019-01-13T10:56:55.039Z,7.50
2019-01-13T10:57:55.106Z,7.10
2019-01-13T10:58:55.012Z,9.20
2019-01-13T10:59:55.014Z,8.60
2019-01-13T11:01:15.993Z,8.00
2019-01-13T11:01:54.966Z,8.10
2019-01-13T11:03:01.716Z,9.90
2019-01-13T11:03:56.694Z,7.70
2019-01-13T11:04:59.964Z,8.00
2019-01-13T11:05:55.046Z,8.50
2019-01-13T11:06:57.984Z,6.70
2019-01-13T11:07:57.425Z,8.20
2019-01-13T11:08:55.012Z,8.40
2019-01-13T11:11:09.438Z,5.40
2019-01-13T11:12:08.511Z,7.00
2019-01-13T11:13:08.807Z,8.10
2019-01-13T11:15:22.081Z,8.00
2019-01-13T11:17:34.591Z,9.60
2019-01-13T11:18:35.243Z,9.40
2019-01-13T11:19:44.637Z,11.10
2019-01-13T11:20:32.934Z,9.50
2019-01-13T11:21:35.293Z,8.40
2019-01-13T11:25:36.828Z,9.90
2019-01-13T11:26:51.306Z,9.80
2019-01-13T11:30:19.690Z,8.50
2019-01-13T11:31:22.469Z,9.80
2019-01-13T11:33:47.061Z,9.40
2019-01-13T11:34:46.741Z,10.00
2019-01-13T11:35:47.614Z,8.20
2019-01-13T11:36:48.105Z,8.20
2019-01-13T11:37:48.409Z,8.90
2019-01-13T11:38:46.506Z,8.30
2019-01-13T11:41:07.821Z,5.40
2019-01-13T11:42:07.517Z,8.40
2019-01-13T11:43:07.430Z,7.70
2019-01-13T11:44:07.658Z,7.90
2019-01-13T11:45:07.522Z,6.90
2019-01-13T11:46:07.522Z,9.10
2019-01-13T11:47:07.434Z,8.00
2019-01-13T11:48:07.894Z,7.60
2019-01-13T11:49:07.325Z,7.30
2019-01-13T11:50:07.276Z,6.70
2019-01-13T11:51:07.379Z,5.90
2019-01-13T11:52:07.349Z,6.90
2019-01-13T11:53:07.270Z,7.20
2019-01-13T11:54:07.260Z,5.40
2019-01-13T11:55:07.369Z,6.70
2019-01-13T11:56:07.205Z,6.20
2019-01-13T11:57:07.201Z,8.10
2019-01-13T11:58:07.234Z,8.20
2019-01-13T11:59:07.195Z,6.50
2019-01-13T12:00:07.199Z,6.60
2019-01-13T12:01:07.154Z,5.50
2019-01-13T12:02:07.142Z,5.30
2019-01-13T12:03:07.616Z,6.80
2019-01-13T12:04:07.188Z,7.60
2019-01-13T12:07:07.518Z,4.40
2019-01-13T12:10:52.072Z,9.70
2019-01-13T12:11:51.446Z,6.80
2019-01-13T12:12:51.846Z,7.00
2019-01-13T12:13:51.503Z,5.70
2019-01-13T12:14:51.407Z,5.10
2019-01-13T12:15:51.278Z,6.60
2019-01-13T12:18:44.419Z,4.80
2019-01-13T12:19:43.509Z,5.20
2019-01-13T12:20:46.115Z,6.20
2019-01-13T12:21:43.525Z,5.80
2019-01-13T12:25:21.848Z,7.10
2019-01-13T12:26:22.343Z,5.10
2019-01-13T12:27:21.303Z,6.80
2019-01-13T12:28:22.208Z,5.90
2019-01-13T12:29:21.052Z,4.00
2019-01-13T12:30:21.069Z,4.30
2019-01-13T12:31:21.207Z,4.30
2019-01-13T12:32:23.004Z,6.30
2019-01-13T12:33:24.683Z,5.40
2019-01-13T12:34:21.099Z,4.30
2019-01-13T12:35:21.945Z,6.20
2019-01-13T12:36:20.963Z,4.90
2019-01-13T12:37:20.909Z,5.70
2019-01-13T12:38:20.905Z,5.90
2019-01-13T12:39:20.893Z,4.40
2019-01-13T12:40:21.046Z,6.30
2019-01-13T12:41:20.861Z,6.30
2019-01-13T12:42:25.521Z,7.10
2019-01-13T12:44:38.426Z,5.30
2019-01-13T12:45:38.497Z,7.40
2019-01-13T12:47:58.951Z,4.80
2019-01-13T12:48:59.154Z,5.00
2019-01-13T12:55:30.142Z,5.00
2019-01-13T12:56:17.073Z,4.80
2019-01-13T12:57:19.182Z,5.10
2019-01-13T12:58:16.988Z,5.50
2019-01-13T12:59:18.605Z,5.80
2019-01-13T13:00:17.079Z,5.60
2019-01-13T13:02:37.646Z,5.70
2019-01-13T13:12:19.507Z,5.60
2019-01-13T13:16:10.319Z,6.70
2019-01-13T13:21:45.884Z,8.70
2019-01-13T13:24:05.466Z,6.80
2019-01-13T13:25:05.167Z,7.20
2019-01-13T13:26:05.064Z,7.50
2019-01-13T13:29:42.886Z,7.00
2019-01-13T13:30:42.462Z,7.00
2019-01-13T13:33:19.675Z,5.60
2019-01-13T13:34:16.498Z,8.30
2019-01-13T13:35:18.290Z,6.40
2019-01-13T13:36:16.445Z,7.30
2019-01-13T13:37:16.306Z,8.90
2019-01-13T13:38:16.333Z,6.90
2019-01-13T13:39:27.230Z,7.80
2019-01-13T13:40:16.771Z,7.30
2019-01-13T13:41:17.584Z,6.50
2019-01-13T13:42:18.107Z,6.20
2019-01-13T13:43:16.257Z,8.40
2019-01-13T13:44:16.240Z,6.70
2019-01-13T13:45:16.356Z,7.90
2019-01-13T13:46:16.652Z,6.50
2019-01-13T13:47:16.194Z,6.60
2019-01-13T13:49:43.097Z,6.70
2019-01-13T13:50:42.851Z,7.30
2019-01-13T13:51:42.751Z,5.40
2019-01-13T13:52:42.668Z,5.90
2019-01-13T13:53:42.548Z,8.20
2019-01-13T13:54:42.554Z,6.00
2019-01-13T13:55:44.208Z,7.60
2019-01-13T13:56:42.560Z,6.90
2019-01-13T13:57:42.574Z,6.30
2019-01-13T13:58:42.524Z,7.20
2019-01-13T13:59:43.195Z,7.90
2019-01-13T14:02:15.475Z,5.80
2019-01-13T14:04:26.071Z,8.20
2019-01-13T14:05:26.072Z,9.80
2019-01-13T14:06:26.628Z,8.70
2019-01-13T14:07:25.491Z,8.30
2019-01-13T14:08:25.574Z,7.50
2019-01-13T14:09:26.201Z,9.30
2019-01-13T14:10:26.180Z,7.60
2019-01-13T14:11:26.396Z,7.80
2019-01-13T14:12:25.443Z,7.70
2019-01-13T14:13:25.379Z,6.70
2019-01-13T14:14:28.463Z,7.90
2019-01-13T14:15:25.345Z,7.40
2019-01-13T14:16:25.357Z,7.50
2019-01-13T14:17:27.845Z,8.50
2019-01-13T14:18:25.309Z,8.90
2019-01-13T14:19:26.132Z,6.10
2019-01-13T14:20:25.320Z,7.70
2019-01-13T14:21:26.240Z,7.80
2019-01-13T14:23:45.539Z,5.80
2019-01-13T14:24:45.643Z,7.40
2019-01-13T14:25:45.495Z,7.30
2019-01-13T14:26:45.624Z,6.50
2019-01-13T14:27:45.501Z,7.50
2019-01-13T14:28:46.364Z,7.30
2019-01-13T14:29:45.361Z,5.80
2019-01-13T14:30:45.407Z,6.30
2019-01-13T14:31:55.386Z,6.50
2019-01-13T14:32:45.720Z,6.00
2019-01-13T14:33:52.565Z,9.40
2019-01-13T14:34:46.486Z,8.50
2019-01-13T14:35:45.741Z,7.10
2019-01-13T14:36:45.418Z,6.90
2019-01-13T14:37:47.319Z,7.60
2019-01-13T14:38:45.258Z,7.20
2019-01-13T14:39:48.803Z,6.70
2019-01-13T14:40:45.732Z,6.60
2019-01-13T14:45:09.254Z,5.20
2019-01-13T14:46:09.290Z,6.90
2019-01-13T14:47:09.647Z,6.80
2019-01-13T14:48:09.181Z,7.80
2019-01-13T14:49:09.555Z,6.50
2019-01-13T14:50:09.076Z,8.30
2019-01-13T14:54:11.207Z,6.10
2019-01-13T14:57:43.093Z,8.00
2019-01-13T14:58:41.955Z,7.10
2019-01-13T14:59:41.874Z,5.80
2019-01-13T15:00:42.933Z,7.10
2019-01-13T15:01:41.922Z,7.00
2019-01-13T15:02:42.943Z,6.40
2019-01-13T15:03:41.780Z,6.60
2019-01-13T15:04:41.810Z,6.70
2019-01-13T15:05:41.790Z,7.70
2019-01-13T15:06:41.775Z,5.90
2019-01-13T15:07:41.835Z,5.80
2019-01-13T15:08:41.773Z,7.30
2019-01-13T15:09:41.983Z,7.60
2019-01-13T15:10:42.404Z,7.10
2019-01-13T15:13:59.038Z,5.40
2019-01-13T15:14:57.092Z,6.70
2019-01-13T15:21:04.496Z,6.70
2019-01-13T15:22:04.315Z,7.90
2019-01-13T15:23:04.945Z,7.20
2019-01-13T15:24:19.059Z,5.70
2019-01-13T15:25:04.198Z,7.20
2019-01-13T15:26:06.307Z,6.10
2019-01-13T15:27:04.279Z,5.30
2019-01-13T15:28:04.139Z,6.40
2019-01-13T15:29:04.248Z,7.10
2019-01-13T15:31:33.885Z,4.30
2019-01-13T15:35:55.617Z,10.80
2019-01-13T15:40:47.581Z,3.90
2019-01-13T15:41:44.273Z,6.80
2019-01-13T15:44:07.573Z,7.10
2019-01-13T15:45:07.989Z,8.40
2019-01-13T15:46:07.283Z,8.20
2019-01-13T15:47:10.455Z,7.40
2019-01-13T15:48:06.937Z,8.20
2019-01-13T15:49:08.486Z,8.90
2019-01-13T15:50:06.944Z,9.60
2019-01-13T15:51:07.085Z,13.30
2019-01-13T15:52:06.898Z,10.70
2019-01-13T15:53:07.545Z,11.70
2019-01-13T15:54:07.432Z,12.60
2019-01-13T15:55:06.866Z,13.00
2019-01-13T15:56:06.862Z,9.30
2019-01-13T15:57:06.840Z,10.50
2019-01-13T15:58:06.890Z,13.40
2019-01-13T15:59:06.945Z,10.70
2019-01-13T16:00:06.805Z,14.60
2019-01-13T16:01:06.826Z,11.10
2019-01-13T16:02:06.777Z,13.80
2019-01-13T16:03:06.773Z,10.00
2019-01-13T16:04:06.787Z,13.00
2019-01-13T16:05:07.127Z,13.70
2019-01-13T16:06:07.585Z,13.70
2019-01-13T16:07:17.122Z,10.90
2019-01-13T16:08:06.885Z,11.40
2019-01-13T16:09:06.897Z,12.80
2019-01-13T16:10:06.826Z,12.50
2019-01-13T16:11:06.937Z,14.40
2019-01-13T16:12:06.809Z,12.70
2019-01-13T16:13:08.462Z,13.80
2019-01-13T16:15:46.842Z,9.30
2019-01-13T16:20:31.901Z,15.80
2019-01-13T16:24:25.793Z,10.80
2019-01-13T16:25:25.589Z,15.30
2019-01-13T16:26:25.579Z,15.10
2019-01-13T16:27:25.329Z,14.30
2019-01-13T16:28:25.303Z,15.30
2019-01-13T16:33:10.515Z,19.00
2019-01-13T16:34:09.344Z,15.20
2019-01-13T16:35:13.952Z,12.40
2019-01-13T16:36:09.033Z,13.80
2019-01-13T16:37:09.005Z,13.70
2019-01-13T16:42:16.022Z,13.20
2019-01-13T16:43:15.790Z,15.30
2019-01-13T16:44:15.724Z,17.80
2019-01-13T16:45:15.449Z,14.10
2019-01-13T16:46:15.897Z,14.50
2019-01-13T16:47:15.368Z,18.80
2019-01-13T16:48:15.370Z,16.20
2019-01-13T16:49:15.761Z,15.40
2019-01-13T16:50:16.193Z,16.20
2019-01-13T16:51:15.323Z,16.30
2019-01-13T16:54:39.742Z,22.10
2019-01-13T16:55:39.001Z,14.10
2019-01-13T16:56:38.615Z,17.10
2019-01-13T16:59:03.344Z,22.80
2019-01-13T17:00:14.561Z,35.80
2019-01-13T17:01:02.725Z,16.90
2019-01-13T17:02:07.620Z,24.70
2019-01-13T17:03:02.525Z,25.00
2019-01-13T17:04:02.539Z,16.00
2019-01-13T17:05:02.729Z,19.60
2019-01-13T17:06:03.246Z,16.20
2019-01-13T17:07:03.297Z,18.90
2019-01-13T17:08:03.582Z,17.50
2019-01-13T17:09:02.399Z,18.40
2019-01-13T17:10:02.411Z,16.40
2019-01-13T17:11:02.616Z,16.40
2019-01-13T17:12:02.381Z,14.80
2019-01-13T17:20:04.770Z,10.00
2019-01-13T17:21:04.688Z,17.60
2019-01-13T17:22:04.460Z,20.70
2019-01-13T17:23:04.845Z,13.40
2019-01-13T17:24:05.422Z,20.60
2019-01-13T17:31:08.673Z,9.80
2019-01-13T17:32:09.761Z,12.60
2019-01-13T17:33:19.701Z,12.20
2019-01-13T17:34:10.529Z,12.30
2019-01-13T17:40:28.602Z,5.40
2019-01-13T17:41:27.030Z,9.70
2019-01-13T17:42:27.188Z,11.10
2019-01-13T17:43:26.926Z,9.90
2019-01-13T17:44:27.208Z,11.60
2019-01-13T17:45:26.839Z,9.10
2019-01-13T17:46:27.440Z,11.30
2019-01-13T17:47:28.432Z,8.50
2019-01-13T17:48:28.422Z,11.60
2019-01-13T17:49:26.844Z,9.30
2019-01-13T17:50:26.848Z,9.10
2019-01-13T17:51:27.416Z,8.30
2019-01-13T17:52:26.763Z,8.70
2019-01-13T17:53:26.759Z,6.60
2019-01-13T17:54:26.840Z,9.70
2019-01-13T17:55:26.770Z,6.80
2019-01-13T17:56:26.735Z,6.10
2019-01-13T17:57:26.735Z,7.80
2019-01-13T17:58:26.704Z,7.10
2019-01-13T17:59:26.809Z,5.10
2019-01-13T18:00:28.485Z,7.30
2019-01-13T18:01:26.685Z,6.10
2019-01-13T18:02:26.652Z,6.50
2019-01-13T18:03:27.425Z,7.80
2019-01-13T18:04:27.043Z,5.20
2019-01-13T18:06:44.291Z,7.20
2019-01-13T18:07:43.748Z,7.70
2019-01-13T18:08:42.995Z,9.10
2019-01-13T18:09:43.124Z,10.40
2019-01-13T18:10:42.921Z,8.60
2019-01-13T18:11:43.063Z,7.40
2019-01-13T18:12:43.025Z,11.80
2019-01-13T18:13:42.863Z,10.80
2019-01-13T18:14:42.853Z,9.80
2019-01-13T18:15:42.855Z,12.70
2019-01-13T18:16:42.942Z,9.80
2019-01-13T18:17:43.602Z,9.50
2019-01-13T18:18:43.023Z,11.50
2019-01-13T18:21:00.249Z,5.20
2019-01-13T18:21:59.438Z,12.40
2019-01-13T18:22:59.066Z,10.40
2019-01-13T18:23:59.150Z,10.80
2019-01-13T18:24:59.002Z,11.20
2019-01-13T18:25:58.947Z,8.00
2019-01-13T18:26:58.934Z,14.00
2019-01-13T18:27:58.937Z,10.40
2019-01-13T18:28:58.906Z,11.30
2019-01-13T18:29:58.964Z,10.70
2019-01-13T18:32:17.228Z,11.90
2019-01-13T18:34:50.332Z,21.10
2019-01-13T18:35:47.631Z,9.60
2019-01-13T18:36:48.073Z,11.00
2019-01-13T18:37:47.461Z,11.80
2019-01-13T18:38:47.455Z,12.80
2019-01-13T18:42:16.068Z,18.30
2019-01-13T18:43:14.593Z,12.50
2019-01-13T18:44:14.891Z,9.30
2019-01-13T18:46:43.283Z,17.30
2019-01-13T18:47:42.891Z,9.80
2019-01-13T18:48:43.457Z,12.40
2019-01-13T18:49:42.689Z,13.20
2019-01-13T18:50:42.682Z,13.80
2019-01-13T18:51:42.640Z,13.00
2019-01-13T18:52:42.640Z,12.50
2019-01-13T18:53:42.601Z,9.30
2019-01-13T18:54:42.937Z,10.70
2019-01-13T18:55:42.581Z,10.50
2019-01-13T18:56:42.650Z,13.00
2019-01-13T18:57:43.475Z,12.40
2019-01-13T18:58:43.466Z,13.40
2019-01-13T18:59:42.561Z,16.30
2019-01-13T19:00:42.554Z,11.30
2019-01-13T19:01:42.612Z,15.30
2019-01-13T19:02:42.731Z,13.50
2019-01-13T19:03:42.487Z,13.90
2019-01-13T19:04:42.531Z,15.90
2019-01-13T19:05:42.510Z,11.40
2019-01-13T19:06:42.452Z,12.30
2019-01-13T19:07:42.920Z,10.30
2019-01-13T19:08:42.446Z,14.20
2019-01-13T19:10:53.805Z,20.00
2019-01-13T19:11:52.617Z,16.70
2019-01-13T19:12:52.747Z,14.30
2019-01-13T19:13:53.207Z,13.10
2019-01-13T19:14:52.518Z,10.50
2019-01-13T19:15:52.629Z,14.40
2019-01-13T19:16:52.505Z,13.90
2019-01-13T19:17:52.500Z,13.40
2019-01-13T19:20:17.233Z,14.10
2019-01-13T19:21:16.728Z,14.90
2019-01-13T19:22:17.861Z,16.20
2019-01-13T19:23:16.499Z,15.60
2019-01-13T19:29:29.631Z,16.20
2019-01-13T19:30:29.411Z,15.00
2019-01-13T19:36:44.780Z,13.30
2019-01-13T19:37:44.879Z,14.90
2019-01-13T19:38:44.127Z,16.60
2019-01-13T19:39:43.747Z,15.80
2019-01-13T19:40:43.879Z,13.20
2019-01-13T19:41:43.735Z,16.30
2019-01-13T19:42:43.777Z,19.10
2019-01-13T19:45:04.859Z,12.50
2019-01-13T19:46:03.948Z,15.80
2019-01-13T19:47:03.895Z,17.70
2019-01-13T20:35:33.886Z,9.20
2019-01-13T20:36:33.610Z,13.70
2019-01-13T20:37:33.673Z,16.70
2019-01-13T20:38:34.843Z,16.30
2019-01-13T20:39:33.472Z,17.40
2019-01-13T20:40:33.504Z,15.30
2019-01-13T20:41:33.398Z,18.30
2019-01-13T20:42:33.300Z,18.30
2019-01-13T20:43:33.334Z,15.70
2019-01-13T20:44:33.274Z,18.50
2019-01-13T20:45:33.385Z,17.60
2019-01-13T20:58:35.317Z,14.20
2019-01-13T21:01:43.205Z,15.80
2019-01-13T21:02:42.602Z,18.60
2019-01-13T21:03:42.933Z,16.40
2019-01-13T21:04:43.054Z,16.10
2019-01-13T21:05:51.704Z,18.20
2019-01-13T21:06:44.148Z,14.90
2019-01-13T21:07:48.106Z,17.90
2019-01-13T21:12:04.695Z,9.90
2019-01-13T21:13:04.815Z,17.50
2019-01-13T21:14:04.735Z,13.10
2019-01-13T21:15:04.632Z,14.80
2019-01-13T21:16:04.848Z,15.80
2019-01-13T21:17:04.582Z,14.40
2019-01-13T21:18:04.576Z,18.20
2019-01-13T21:19:05.249Z,12.00
2019-01-13T21:20:04.549Z,14.80
2019-01-13T21:21:04.563Z,17.70
2019-01-13T21:22:05.173Z,15.30
2019-01-13T21:23:04.535Z,16.90
2019-01-13T21:24:05.168Z,16.50
2019-01-13T21:25:05.517Z,18.80
2019-01-13T21:26:04.495Z,19.30
2019-01-13T21:27:04.500Z,19.10
2019-01-13T21:28:04.539Z,16.50
2019-01-13T21:29:04.496Z,16.40
2019-01-13T21:30:04.474Z,21.80
2019-01-13T21:31:04.527Z,20.40
2019-01-13T21:32:04.482Z,16.90
2019-01-13T21:33:04.440Z,18.50
2019-01-13T21:34:04.675Z,15.50
2019-01-13T21:35:04.463Z,17.40
2019-01-13T21:36:04.380Z,20.30
2019-01-13T21:37:04.419Z,17.90
2019-01-13T21:38:04.394Z,19.20
2019-01-13T21:39:04.374Z,18.90
2019-01-13T21:40:04.390Z,18.90
2019-01-13T21:41:04.378Z,15.10
2019-01-13T21:42:04.308Z,15.70
2019-01-13T21:43:04.300Z,16.60
2019-01-13T21:44:04.432Z,21.50
2019-01-13T21:45:06.282Z,16.90
2019-01-13T21:46:04.836Z,23.70
2019-01-13T21:47:04.404Z,17.70
2019-01-13T21:48:04.258Z,18.80
2019-01-13T21:49:06.245Z,20.50
2019-01-13T21:50:04.238Z,21.10
2019-01-13T21:51:04.239Z,18.80
2019-01-13T21:52:05.287Z,24.00
2019-01-13T21:53:04.272Z,16.10
2019-01-13T21:54:10.849Z,21.40
2019-01-13T21:56:18.681Z,17.30
2019-01-13T21:57:24.862Z,19.70
2019-01-13T21:58:17.758Z,19.90
2019-01-13T21:59:16.890Z,14.50
2019-01-13T22:00:20.158Z,20.50
2019-01-13T22:01:17.011Z,21.60
2019-01-13T22:02:16.941Z,17.80
2019-01-13T22:03:16.874Z,13.60
2019-01-13T22:04:16.852Z,12.80
2019-01-13T22:05:16.819Z,20.40
2019-01-13T22:06:17.646Z,21.20
2019-01-13T22:07:16.829Z,15.60
2019-01-13T22:08:16.792Z,12.60
2019-01-13T22:09:16.776Z,12.10
2019-01-13T22:10:16.789Z,9.70
2019-01-13T22:11:16.763Z,10.50
2019-01-13T22:12:16.738Z,13.40
2019-01-13T22:13:17.248Z,14.30
2019-01-13T22:14:16.722Z,12.60
2019-01-13T22:15:16.707Z,13.10
2019-01-13T22:16:16.820Z,11.00
2019-01-13T22:17:16.699Z,14.30
2019-01-13T22:18:16.683Z,14.60
2019-01-13T22:19:16.703Z,10.80
2019-01-13T22:20:16.659Z,13.80
2019-01-13T22:21:16.725Z,16.00
2019-01-13T22:22:16.634Z,14.70
2019-01-13T22:23:17.162Z,19.20
2019-01-13T22:24:16.838Z,14.60
2019-01-13T22:25:16.655Z,12.40
2019-01-13T22:26:16.612Z,20.80
2019-01-13T22:27:16.580Z,15.40
2019-01-13T22:28:16.572Z,18.00
2019-01-13T22:29:16.654Z,21.10
2019-01-13T22:30:16.661Z,21.20
2019-01-13T22:31:22.264Z,16.10
2019-01-13T22:32:17.642Z,16.20
2019-01-13T22:33:17.276Z,19.40
2019-01-13T22:34:16.538Z,19.80
2019-01-13T22:35:16.845Z,16.00
2019-01-13T22:36:17.233Z,19.20
2019-01-13T22:37:16.484Z,18.00
2019-01-13T22:38:16.486Z,13.80
2019-01-13T22:39:16.486Z,17.40
2019-01-13T22:40:16.588Z,12.40
2019-01-13T22:41:16.447Z,14.90
2019-01-13T22:42:16.462Z,14.20
2019-01-13T22:43:16.406Z,15.90
2019-01-13T22:44:16.397Z,19.20
2019-01-13T22:45:16.390Z,18.40
2019-01-13T22:46:16.390Z,17.50
2019-01-13T22:47:17.552Z,16.50
2019-01-13T22:49:44.625Z,15.60
2019-01-13T22:50:43.876Z,20.20
2019-01-13T22:51:44.536Z,19.80
2019-01-13T22:52:44.765Z,19.10
2019-01-13T22:53:43.699Z,23.80
2019-01-13T22:54:43.606Z,16.60
2019-01-13T22:55:43.819Z,19.00
2019-01-13T22:56:43.602Z,22.60
2019-01-13T22:57:44.400Z,15.30
2019-01-13T23:00:37.220Z,22.10
2019-01-13T23:01:41.845Z,17.40
2019-01-13T23:02:37.676Z,19.00
2019-01-13T23:03:36.589Z,19.60
2019-01-13T23:04:49.628Z,18.10
2019-01-13T23:05:36.571Z,17.60
2019-01-13T23:06:36.653Z,17.50
2019-01-13T23:07:36.638Z,18.30
2019-01-13T23:08:36.590Z,18.40
2019-01-13T23:09:36.627Z,21.70
2019-01-13T23:10:36.500Z,16.70
2019-01-13T23:11:36.508Z,16.20
2019-01-13T23:13:53.209Z,14.90
2019-01-13T23:14:52.724Z,17.20
2019-01-13T23:15:52.748Z,17.60
2019-01-13T23:16:52.807Z,19.90
2019-01-13T23:17:52.780Z,17.10
2019-01-13T23:18:52.589Z,19.70